createdAt,value
2022-10-23T00:04:09.686Z,22.52
2022-10-23T00:10:43.787Z,22.5
2022-10-23T00:17:14.565Z,22.51
2022-10-23T00:23:42.735Z,22.65
2022-10-23T00:30:13.398Z,22.52
2022-10-23T00:36:47.519Z,22.48
2022-10-23T00:43:16.351Z,22.51
2022-10-23T00:49:55.739Z,22.61
2022-10-23T00:56:32.340Z,22.63
2022-10-23T01:03:02.650Z,22.49
2022-10-23T01:09:57.784Z,22.44
2022-10-23T01:17:17.579Z,22.48
2022-10-23T01:24:16.674Z,22.44
2022-10-23T01:31:21.149Z,22.42
2022-10-23T01:38:15.352Z,22.51
2022-10-23T01:45:13.438Z,22.55
2022-10-23T01:52:09.752Z,22.52
2022-10-23T01:58:58.846Z,22.6
2022-10-23T02:05:45.403Z,22.51
2022-10-23T02:12:22.612Z,22.52
2022-10-23T02:19:34.966Z,22.47
2022-10-23T02:26:41.774Z,22.38
2022-10-23T02:33:32.708Z,22.39
2022-10-23T02:40:12.624Z,22.4
2022-10-23T02:47:12.597Z,22.39
2022-10-23T02:54:29.410Z,22.38
2022-10-23T03:01:30.544Z,22.4
2022-10-23T03:08:22.484Z,22.4
2022-10-23T03:14:55.394Z,22.43
2022-10-23T03:21:18.519Z,22.38
2022-10-23T03:27:45.456Z,22.38
2022-10-23T03:34:16.550Z,22.39
2022-10-23T03:40:43.935Z,22.42
2022-10-23T03:47:05.454Z,22.46
2022-10-23T03:53:34.480Z,22.35
2022-10-23T04:00:02.855Z,22.48
2022-10-23T04:06:27.069Z,22.4
2022-10-23T04:12:52.930Z,22.49
2022-10-23T04:19:18.409Z,22.42
2022-10-23T04:32:20.459Z,22.56
2022-10-23T04:38:49.298Z,22.59
2022-10-23T04:45:24.402Z,22.44
2022-10-23T04:51:55.431Z,22.35
2022-10-23T04:58:28.612Z,22.38
2022-10-23T05:04:57.410Z,22.47
2022-10-23T05:11:25.548Z,22.64
2022-10-23T05:18:07.386Z,22.64
2022-10-23T05:25:04.655Z,22.64
2022-10-23T05:31:30.493Z,22.65
2022-10-23T05:38:08.709Z,22.62
2022-10-23T05:44:44.068Z,22.73
2022-10-23T05:51:24.492Z,22.73
2022-10-23T05:57:59.342Z,22.59
2022-10-23T06:04:31.913Z,22.63
2022-10-23T06:10:58.594Z,22.55
2022-10-23T06:17:41.774Z,22.38
2022-10-23T06:24:07.882Z,22.44
2022-10-23T06:30:47.059Z,22.36
2022-10-23T06:37:22.605Z,22.35
2022-10-23T06:44:00.464Z,22.35
2022-10-23T06:50:31.523Z,22.34
2022-10-23T06:57:00.519Z,22.33
2022-10-23T07:03:28.930Z,22.31
2022-10-23T07:10:00.615Z,22.3
2022-10-23T07:16:26.533Z,22.31
2022-10-23T07:22:57.308Z,22.27
2022-10-23T07:29:28.484Z,22.31
2022-10-23T07:36:01.576Z,22.25
2022-10-23T07:42:22.529Z,22.22
2022-10-23T07:48:52.081Z,22.24
2022-10-23T07:55:22.694Z,22.29
2022-10-23T08:01:56.698Z,22.29
2022-10-23T08:08:20.570Z,22.26
2022-10-23T08:14:50.662Z,22.29
2022-10-23T08:21:15.471Z,22.26
2022-10-23T08:27:40.934Z,22.28
2022-10-23T08:34:08.540Z,22.3
2022-10-23T08:40:32.986Z,22.32
2022-10-23T08:47:34.944Z,22.33
2022-10-23T08:54:44.569Z,22.32
2022-10-23T09:01:47.746Z,22.29
2022-10-23T09:08:44.182Z,22.31
2022-10-23T09:15:53.728Z,22.28
2022-10-23T09:22:42.723Z,22.42
2022-10-23T09:29:27.686Z,22.6
2022-10-23T09:36:10.827Z,22.59
2022-10-23T09:42:57.902Z,22.58
2022-10-23T09:49:34.931Z,22.55
2022-10-23T09:56:11.912Z,22.45
2022-10-23T10:03:11.630Z,22.39
2022-10-23T10:10:03.670Z,22.36
2022-10-23T10:17:20.571Z,22.54
2022-10-23T10:24:19.622Z,22.43
2022-10-23T10:31:17.663Z,22.52
2022-10-23T10:38:24.776Z,22.4
2022-10-23T10:45:18.928Z,22.54
2022-10-23T10:52:25.797Z,22.51
2022-10-23T10:59:42.701Z,22.65
2022-10-23T11:06:41.652Z,22.73
2022-10-23T11:13:33.810Z,22.57
2022-10-23T11:20:35.594Z,22.5
2022-10-23T11:27:35.202Z,22.46
2022-10-23T11:34:44.295Z,22.62
2022-10-23T11:41:26.386Z,22.57
2022-10-23T11:48:18.150Z,22.55
2022-10-23T11:54:58.752Z,22.58
2022-10-23T12:01:50.182Z,22.56
2022-10-23T12:08:44.232Z,22.7
2022-10-23T12:15:48.740Z,22.76
2022-10-23T12:22:47.988Z,22.56
2022-10-23T12:29:44.698Z,22.53
2022-10-23T12:36:49.875Z,22.51
2022-10-23T12:43:51.933Z,22.51
2022-10-23T12:50:38.714Z,22.59
2022-10-23T12:57:31.569Z,22.62
2022-10-23T13:10:58.636Z,22.82
2022-10-23T13:17:43.065Z,22.78
2022-10-23T13:24:38.798Z,22.76
2022-10-23T13:31:29.732Z,22.73
2022-10-23T13:38:05.754Z,22.7
2022-10-23T13:44:54.091Z,22.69
2022-10-23T13:51:23.729Z,22.74
2022-10-23T13:57:57.508Z,22.96
2022-10-23T14:04:29.816Z,22.97
2022-10-23T14:11:02.860Z,22.92
2022-10-23T14:17:47.761Z,22.93
2022-10-23T14:24:14.000Z,22.79
2022-10-23T14:30:51.713Z,22.88
2022-10-23T14:37:14.699Z,22.95
2022-10-23T14:43:47.759Z,22.93
2022-10-23T14:50:28.707Z,22.98
2022-10-23T14:57:16.494Z,23.05
2022-10-23T15:03:42.710Z,22.99
2022-10-23T15:16:46.832Z,22.86
2022-10-23T15:23:14.725Z,22.93
2022-10-23T15:29:48.743Z,22.83
2022-10-23T15:36:33.636Z,22.9
2022-10-23T15:43:10.375Z,22.73
2022-10-23T15:49:37.114Z,22.64
2022-10-23T15:56:17.820Z,22.68
2022-10-23T16:02:48.056Z,22.69
2022-10-23T16:09:17.789Z,22.68
2022-10-23T16:15:48.837Z,22.68
2022-10-23T16:22:29.096Z,22.66
2022-10-23T16:29:02.822Z,22.68
2022-10-23T16:35:30.711Z,22.71
2022-10-23T16:42:04.792Z,22.64
2022-10-23T16:48:34.777Z,22.66
2022-10-23T16:55:00.843Z,22.65
2022-10-23T17:01:29.948Z,22.64
2022-10-23T17:07:57.785Z,22.61
2022-10-23T17:14:36.470Z,22.64
2022-10-23T17:21:08.763Z,22.6
2022-10-23T17:27:34.886Z,22.64
2022-10-23T17:34:04.804Z,22.61
2022-10-23T17:40:34.086Z,22.59
2022-10-23T17:47:11.083Z,22.56
2022-10-23T17:53:57.849Z,22.59
2022-10-23T18:00:29.849Z,22.57
2022-10-23T18:07:05.767Z,22.53
2022-10-23T18:13:34.987Z,22.64
2022-10-23T18:20:06.825Z,22.6
2022-10-23T18:26:30.889Z,22.67
2022-10-23T18:33:00.766Z,22.72
2022-10-23T18:39:30.891Z,22.66
2022-10-23T18:46:09.192Z,22.68
2022-10-23T18:52:47.474Z,22.61
2022-10-23T18:59:19.763Z,22.63
2022-10-23T19:05:50.826Z,22.56
2022-10-23T19:12:22.336Z,22.44
2022-10-23T19:18:52.330Z,22.44
2022-10-23T19:25:37.874Z,22.39
2022-10-23T19:32:22.855Z,22.4
2022-10-23T19:38:54.380Z,22.39
2022-10-23T19:45:21.892Z,22.37
2022-10-23T19:51:50.580Z,22.38
2022-10-23T19:58:18.939Z,22.35
2022-10-23T20:04:44.516Z,22.29
2022-10-23T20:11:18.012Z,22.26
2022-10-23T20:17:49.257Z,22.34
2022-10-23T20:24:13.949Z,22.28
2022-10-23T20:30:48.949Z,22.3
2022-10-23T20:37:12.935Z,22.31
2022-10-23T20:43:45.921Z,22.37
2022-10-23T20:50:08.825Z,22.35
2022-10-23T20:56:34.946Z,22.33
2022-10-23T21:03:08.520Z,22.44
2022-10-23T21:09:35.475Z,22.32
2022-10-23T21:16:13.145Z,22.47
2022-10-23T21:22:46.238Z,22.34
2022-10-23T21:29:26.901Z,22.46
2022-10-23T21:35:58.209Z,22.33
2022-10-23T21:42:25.376Z,22.34
2022-10-23T21:48:55.867Z,22.3
2022-10-23T21:55:32.945Z,22.28
2022-10-23T22:02:05.128Z,22.3
2022-10-23T22:08:38.174Z,22.31
2022-10-23T22:15:04.931Z,22.35
2022-10-23T22:21:37.966Z,22.32
2022-10-23T22:28:24.460Z,22.28
2022-10-23T22:35:05.244Z,22.23
2022-10-23T22:41:37.060Z,22.24
2022-10-23T22:48:09.911Z,22.26
2022-10-23T22:54:39.102Z,22.21
2022-10-23T23:01:00.569Z,22.26
2022-10-23T23:07:28.011Z,22.41
2022-10-23T23:14:00.642Z,22.36
2022-10-23T23:20:31.129Z,22.26
2022-10-23T23:26:59.048Z,22.44
2022-10-23T23:33:27.958Z,22.43
2022-10-23T23:40:17.438Z,22.38
2022-10-23T23:46:45.036Z,22.3
2022-10-23T23:53:17.115Z,22.49
2022-10-23T23:59:42.952Z,22.38
